createdAt,value
2022-12-15T00:00:23.711Z,86.25
2022-12-15T00:03:09.828Z,86.17
2022-12-15T00:05:56.710Z,86.23
2022-12-15T00:08:42.706Z,86.41
2022-12-15T00:11:28.163Z,86.51
2022-12-15T00:14:13.758Z,86.58
2022-12-15T00:16:59.667Z,86.63
2022-12-15T00:19:45.044Z,86.68
2022-12-15T00:22:31.938Z,86.77
2022-12-15T00:25:17.362Z,86.80
2022-12-15T00:28:03.245Z,86.84
2022-12-15T00:30:49.615Z,86.97
2022-12-15T00:33:35.966Z,86.47
2022-12-15T00:36:22.033Z,86.12
2022-12-15T00:38:52.217Z,86.29
2022-12-15T00:41:20.537Z,86.25
2022-12-15T00:43:48.850Z,86.41
2022-12-15T00:46:46.754Z,86.20
2022-12-15T00:49:28.904Z,86.48
2022-12-15T00:52:14.809Z,86.16
2022-12-15T00:55:02.296Z,86.25
2022-12-15T00:57:47.747Z,85.83
2022-12-15T01:00:34.091Z,86.08
2022-12-15T01:03:19.730Z,86.05
2022-12-15T01:06:05.350Z,85.97
2022-12-15T01:08:50.956Z,86.00
2022-12-15T01:11:38.356Z,85.90
2022-12-15T01:14:23.723Z,85.66
2022-12-15T01:17:09.298Z,85.65
2022-12-15T01:19:54.738Z,85.71
2022-12-15T01:22:23.266Z,85.81
2022-12-15T01:24:51.558Z,85.97
2022-12-15T01:27:21.229Z,86.02
2022-12-15T01:29:49.422Z,85.89
2022-12-15T01:32:17.656Z,85.84
2022-12-15T01:34:45.900Z,85.92
2022-12-15T01:37:14.434Z,86.13
2022-12-15T01:40:00.208Z,86.12
2022-12-15T01:42:30.121Z,86.15
2022-12-15T01:45:31.867Z,86.14
2022-12-15T01:48:04.228Z,86.35
2022-12-15T01:50:34.098Z,86.25
2022-12-15T01:53:03.174Z,86.29
2022-12-15T01:55:33.094Z,86.37
2022-12-15T01:58:06.771Z,86.23
2022-12-15T02:00:35.665Z,86.17
2022-12-15T02:03:06.362Z,86.20
2022-12-15T02:05:35.619Z,86.19
2022-12-15T02:08:05.799Z,86.22
2022-12-15T02:10:49.998Z,86.55
2022-12-15T02:13:24.574Z,86.57
2022-12-15T02:16:01.158Z,86.36
2022-12-15T02:18:36.498Z,86.54
2022-12-15T02:21:11.020Z,86.74
2022-12-15T02:24:21.913Z,86.82
2022-12-15T02:27:31.332Z,86.69
2022-12-15T02:30:26.325Z,86.77
2022-12-15T02:33:09.950Z,86.68
2022-12-15T02:35:49.092Z,86.64
2022-12-15T02:38:17.701Z,86.54
2022-12-15T02:40:45.945Z,86.67
2022-12-15T02:43:14.256Z,86.75
2022-12-15T02:45:53.175Z,86.90
2022-12-15T02:48:31.560Z,86.74
2022-12-15T02:51:12.863Z,86.56
2022-12-15T02:54:23.119Z,86.65
2022-12-15T02:57:03.984Z,86.67
2022-12-15T02:59:40.109Z,86.66
2022-12-15T03:02:12.041Z,86.63
2022-12-15T03:04:41.071Z,86.65
2022-12-15T03:07:11.411Z,86.70
2022-12-15T03:09:39.657Z,86.70
2022-12-15T03:12:11.259Z,86.76
2022-12-15T03:14:39.650Z,86.89
2022-12-15T03:17:09.503Z,86.82
2022-12-15T03:19:37.779Z,86.80
2022-12-15T03:22:06.082Z,86.78
2022-12-15T03:24:34.331Z,86.73
2022-12-15T03:27:02.815Z,86.74
2022-12-15T03:29:31.076Z,86.81
2022-12-15T03:31:59.381Z,86.93
2022-12-15T03:34:29.028Z,86.98
2022-12-15T03:36:57.408Z,86.90
2022-12-15T03:39:25.613Z,86.73
2022-12-15T03:41:53.860Z,86.58
2022-12-15T03:44:22.155Z,86.48
2022-12-15T03:46:50.401Z,86.45
2022-12-15T03:49:18.887Z,86.57
2022-12-15T03:51:48.492Z,86.75
2022-12-15T03:54:16.888Z,86.68
2022-12-15T03:56:45.526Z,86.69
2022-12-15T03:59:13.760Z,86.68
2022-12-15T04:01:47.812Z,86.60
2022-12-15T04:04:16.162Z,86.77
2022-12-15T04:06:44.387Z,86.92
2022-12-15T04:09:13.953Z,86.89
2022-12-15T04:11:42.210Z,86.71
2022-12-15T04:14:10.708Z,86.34
2022-12-15T04:16:39.032Z,86.31
2022-12-15T04:19:24.520Z,86.47
2022-12-15T04:21:52.767Z,86.45
2022-12-15T04:24:40.155Z,86.51
2022-12-15T04:27:25.440Z,86.51
2022-12-15T04:30:10.873Z,86.48
2022-12-15T04:32:56.847Z,86.47
2022-12-15T04:35:42.322Z,86.42
2022-12-15T04:38:28.295Z,86.54
2022-12-15T04:41:15.677Z,86.61
2022-12-15T04:44:01.610Z,86.53
2022-12-15T04:46:47.078Z,86.81
2022-12-15T04:49:32.394Z,86.99
2022-12-15T04:52:18.195Z,86.95
2022-12-15T04:55:03.879Z,86.85
2022-12-15T04:57:50.904Z,86.61
2022-12-15T05:00:36.645Z,86.48
2022-12-15T05:03:23.769Z,86.39
2022-12-15T05:06:09.811Z,86.41
2022-12-15T05:08:55.500Z,86.58
2022-12-15T05:11:41.171Z,86.64
2022-12-15T05:14:28.226Z,86.58
2022-12-15T05:17:13.905Z,86.60
2022-12-15T05:19:59.575Z,86.62
2022-12-15T05:22:45.184Z,86.57
2022-12-15T05:25:30.660Z,86.66
2022-12-15T05:28:16.189Z,86.58
2022-12-15T05:31:03.533Z,86.92
2022-12-15T05:33:32.072Z,86.91
2022-12-15T05:36:00.558Z,86.78
2022-12-15T05:38:28.905Z,86.69
2022-12-15T05:40:58.788Z,86.77
2022-12-15T05:43:27.385Z,86.77
2022-12-15T05:45:57.043Z,86.61
2022-12-15T05:48:25.405Z,86.54
2022-12-15T05:50:53.712Z,86.47
2022-12-15T05:53:22.025Z,86.32
2022-12-15T05:55:50.250Z,86.50
2022-12-15T05:58:18.485Z,86.77
2022-12-15T06:00:46.690Z,86.73
2022-12-15T06:03:16.471Z,86.63
2022-12-15T06:05:44.697Z,86.61
2022-12-15T06:08:13.055Z,86.66
2022-12-15T06:10:41.264Z,86.52
2022-12-15T06:13:09.521Z,86.61
2022-12-15T06:15:37.699Z,86.58
2022-12-15T06:18:06.279Z,86.54
2022-12-15T06:20:35.901Z,86.39
2022-12-15T06:23:04.269Z,86.22
2022-12-15T06:25:32.482Z,86.16
2022-12-15T06:28:02.012Z,86.19
2022-12-15T06:30:30.493Z,86.27
2022-12-15T06:32:58.840Z,86.38
2022-12-15T06:35:27.157Z,86.52
2022-12-15T06:37:56.754Z,86.58
2022-12-15T06:40:24.952Z,86.45
2022-12-15T06:42:53.227Z,86.62
2022-12-15T06:45:21.441Z,86.58
2022-12-15T06:47:50.139Z,86.56
2022-12-15T06:50:18.554Z,86.57
2022-12-15T06:52:46.864Z,86.63
2022-12-15T06:55:16.688Z,86.68
2022-12-15T06:57:44.922Z,86.67
2022-12-15T07:00:15.394Z,86.70
2022-12-15T07:02:43.885Z,86.74
2022-12-15T07:05:18.482Z,86.77
2022-12-15T07:07:46.694Z,86.67
2022-12-15T07:10:16.399Z,86.74
2022-12-15T07:12:44.620Z,86.64
2022-12-15T07:15:13.408Z,86.39
2022-12-15T07:17:41.961Z,86.20
2022-12-15T07:20:11.308Z,86.36
2022-12-15T07:22:39.573Z,86.45
2022-12-15T07:25:09.360Z,86.53
2022-12-15T07:27:38.964Z,86.54
2022-12-15T07:30:08.425Z,86.51
2022-12-15T07:32:36.664Z,86.46
2022-12-15T07:35:07.750Z,86.38
2022-12-15T07:37:37.054Z,86.41
2022-12-15T07:40:06.614Z,86.38
2022-12-15T07:42:34.955Z,86.41
2022-12-15T07:45:05.464Z,86.47
2022-12-15T07:47:34.042Z,86.29
2022-12-15T07:50:02.242Z,86.12
2022-12-15T07:52:31.121Z,86.22
2022-12-15T07:54:59.323Z,86.37
2022-12-15T07:57:27.786Z,86.41
2022-12-15T07:59:57.089Z,86.22
2022-12-15T08:02:27.011Z,86.16
2022-12-15T08:04:55.477Z,86.16
2022-12-15T08:07:23.724Z,86.19
2022-12-15T08:09:53.894Z,86.07
2022-12-15T08:12:22.093Z,85.88
2022-12-15T08:14:50.701Z,85.77
2022-12-15T08:17:18.987Z,85.82
2022-12-15T08:19:48.534Z,85.93
2022-12-15T08:22:16.768Z,85.88
2022-12-15T08:24:45.016Z,85.90
2022-12-15T08:27:13.272Z,85.90
2022-12-15T08:29:51.065Z,85.90
2022-12-15T08:32:20.360Z,85.84
2022-12-15T08:34:50.321Z,85.81
2022-12-15T08:37:18.625Z,85.71
2022-12-15T08:39:48.033Z,85.65
2022-12-15T08:42:16.338Z,85.73
2022-12-15T08:44:44.648Z,85.77
2022-12-15T08:47:12.859Z,85.68
2022-12-15T08:49:41.144Z,85.58
2022-12-15T08:52:10.869Z,85.45
2022-12-15T08:54:39.234Z,85.39
2022-12-15T08:57:07.432Z,85.36
2022-12-15T08:59:36.016Z,85.29
2022-12-15T09:02:04.365Z,85.33
2022-12-15T09:04:32.972Z,85.24
2022-12-15T09:07:01.272Z,85.17
2022-12-15T09:09:30.898Z,85.13
2022-12-15T09:11:59.105Z,85.05
2022-12-15T09:14:29.666Z,85.05
2022-12-15T09:16:58.178Z,84.93
2022-12-15T09:19:26.519Z,84.90
2022-12-15T09:21:55.651Z,84.73
2022-12-15T09:24:32.461Z,84.75
2022-12-15T09:27:04.777Z,84.62
2022-12-15T09:29:33.450Z,84.49
2022-12-15T09:32:01.654Z,84.49
2022-12-15T09:34:29.965Z,84.45
2022-12-15T09:36:58.306Z,84.48
2022-12-15T09:39:26.642Z,84.42
2022-12-15T09:41:57.192Z,84.41
2022-12-15T09:44:28.856Z,84.22
2022-12-15T09:47:06.918Z,84.16
2022-12-15T09:49:47.221Z,84.07
2022-12-15T09:52:18.490Z,84.04
2022-12-15T09:54:47.492Z,84.05
2022-12-15T09:57:24.763Z,84.05
2022-12-15T10:00:21.821Z,84.10
2022-12-15T10:03:33.412Z,84.01
2022-12-15T10:06:17.701Z,83.96
2022-12-15T10:08:50.956Z,84.27
2022-12-15T10:11:28.108Z,83.96
2022-12-15T10:14:00.954Z,84.09
2022-12-15T10:16:38.242Z,84.00
2022-12-15T10:19:13.369Z,83.88
2022-12-15T10:21:42.493Z,83.90
2022-12-15T10:24:37.547Z,84.11
2022-12-15T10:27:21.453Z,83.94
2022-12-15T10:30:01.160Z,83.72
2022-12-15T10:32:43.851Z,83.94
2022-12-15T10:35:16.754Z,83.83
2022-12-15T10:37:45.029Z,83.34
2022-12-15T10:40:19.020Z,83.41
2022-12-15T10:42:49.982Z,83.67
2022-12-15T10:45:35.636Z,83.48
2022-12-15T10:48:07.147Z,83.60
2022-12-15T10:50:35.865Z,83.36
2022-12-15T10:53:09.964Z,83.39
2022-12-15T10:55:40.554Z,83.16
2022-12-15T10:58:18.164Z,82.82
2022-12-15T11:00:50.897Z,83.08
2022-12-15T11:03:26.198Z,82.88
2022-12-15T11:05:56.097Z,83.30
2022-12-15T11:08:25.420Z,83.22
2022-12-15T11:11:12.853Z,82.77
2022-12-15T11:13:42.016Z,82.95
2022-12-15T11:16:16.753Z,82.96
2022-12-15T11:18:50.484Z,82.65
2022-12-15T11:21:23.582Z,82.97
2022-12-15T11:23:58.916Z,82.67
2022-12-15T11:26:37.344Z,83.01
2022-12-15T11:29:16.925Z,82.75
2022-12-15T11:31:48.688Z,83.00
2022-12-15T11:34:21.758Z,82.98
2022-12-15T11:37:19.263Z,82.72
2022-12-15T11:40:00.567Z,82.58
2022-12-15T11:42:39.242Z,82.40
2022-12-15T11:45:15.247Z,82.95
2022-12-15T11:47:49.726Z,82.52
2022-12-15T11:50:31.495Z,82.77
2022-12-15T11:53:23.784Z,83.09
2022-12-15T11:55:59.619Z,82.95
2022-12-15T11:58:56.670Z,82.83
2022-12-15T12:01:49.446Z,82.78
2022-12-15T12:04:25.567Z,82.80
2022-12-15T12:07:07.831Z,82.71
2022-12-15T12:09:38.522Z,82.64
2022-12-15T12:12:20.259Z,82.56
2022-12-15T12:14:57.606Z,82.49
2022-12-15T12:17:38.531Z,82.55
2022-12-15T12:20:16.030Z,82.51
2022-12-15T12:22:53.926Z,82.40
2022-12-15T12:25:24.298Z,82.36
2022-12-15T12:27:56.850Z,82.27
2022-12-15T12:30:28.027Z,82.47
2022-12-15T12:33:05.433Z,82.28
2022-12-15T12:35:39.236Z,82.62
2022-12-15T12:38:12.296Z,82.36
2022-12-15T12:40:52.732Z,82.20
2022-12-15T12:43:33.143Z,82.58
2022-12-15T12:46:08.064Z,82.25
2022-12-15T12:48:40.784Z,82.71
2022-12-15T12:51:17.549Z,82.30
2022-12-15T12:53:48.747Z,82.39
2022-12-15T12:56:38.714Z,82.69
2022-12-15T12:59:37.331Z,82.70
2022-12-15T13:02:47.629Z,82.65
2022-12-15T13:05:40.473Z,82.39
2022-12-15T13:08:53.186Z,82.19
2022-12-15T13:11:56.605Z,82.42
2022-12-15T13:14:46.684Z,82.44
2022-12-15T13:17:27.547Z,82.45
2022-12-15T13:20:22.979Z,82.27
2022-12-15T13:22:52.027Z,82.29
2022-12-15T13:25:40.547Z,82.41
2022-12-15T13:28:24.387Z,82.31
2022-12-15T13:31:23.107Z,82.46
2022-12-15T13:34:12.452Z,82.23
2022-12-15T13:37:08.254Z,82.36
2022-12-15T13:39:53.132Z,82.51
2022-12-15T13:42:45.360Z,82.52
2022-12-15T13:45:48.875Z,82.25
2022-12-15T13:48:31.036Z,82.39
2022-12-15T13:51:18.947Z,82.48
2022-12-15T13:56:50.808Z,82.52
2022-12-15T13:59:31.967Z,82.59
2022-12-15T14:02:01.930Z,82.44
2022-12-15T14:04:30.468Z,82.62
2022-12-15T14:07:02.175Z,82.74
2022-12-15T14:09:34.700Z,82.87
2022-12-15T14:12:04.871Z,83.05
2022-12-15T14:14:36.133Z,82.94
2022-12-15T14:17:10.296Z,82.75
2022-12-15T14:19:40.919Z,82.76
2022-12-15T14:22:27.658Z,82.78
2022-12-15T14:25:02.852Z,82.85
2022-12-15T14:27:34.277Z,83.00
2022-12-15T14:30:25.729Z,83.31
2022-12-15T14:33:00.804Z,83.51
2022-12-15T14:35:38.052Z,83.59
2022-12-15T14:38:12.585Z,83.74
2022-12-15T14:40:42.550Z,83.81
2022-12-15T14:43:17.082Z,83.94
2022-12-15T14:45:45.619Z,84.08
2022-12-15T14:51:15.438Z,84.00
2022-12-15T14:53:49.031Z,83.71
2022-12-15T14:56:31.514Z,83.48
2022-12-15T14:59:04.033Z,83.36
2022-12-15T15:01:40.102Z,83.42
2022-12-15T15:03:11.859Z,82.39
2022-12-15T15:03:14.539Z,84.12
2022-12-15T15:04:29.233Z,83.28
2022-12-15T15:07:00.319Z,83.33
2022-12-15T15:09:30.309Z,83.45
2022-12-15T15:12:02.703Z,83.36
2022-12-15T15:14:33.841Z,83.22
2022-12-15T15:17:07.421Z,83.39
2022-12-15T15:19:40.019Z,83.55
2022-12-15T15:22:26.929Z,83.68
2022-12-15T15:24:55.314Z,83.84
2022-12-15T15:27:26.813Z,83.92
2022-12-15T15:30:13.234Z,84.05
2022-12-15T15:32:52.097Z,84.28
2022-12-15T15:35:22.180Z,84.45
2022-12-15T15:37:51.645Z,84.52
2022-12-15T15:40:19.848Z,84.79
2022-12-15T15:42:49.077Z,85.03
2022-12-15T15:45:17.475Z,85.19
2022-12-15T15:47:49.335Z,85.36
2022-12-15T15:50:26.596Z,85.43
2022-12-15T15:52:54.896Z,85.58
2022-12-15T15:55:31.383Z,85.74
2022-12-15T15:58:01.839Z,85.90
2022-12-15T16:00:30.125Z,86.04
2022-12-15T16:02:58.795Z,86.15
2022-12-15T16:05:28.800Z,86.16
2022-12-15T16:07:58.526Z,86.35
2022-12-15T16:10:28.152Z,86.52
2022-12-15T16:12:58.953Z,86.64
2022-12-15T16:15:29.845Z,86.74
2022-12-15T16:17:58.552Z,86.74
2022-12-15T16:20:30.932Z,86.89
2022-12-15T16:23:02.183Z,86.64
2022-12-15T16:25:43.834Z,86.47
2022-12-15T16:28:18.711Z,86.47
2022-12-15T16:30:47.211Z,86.22
2022-12-15T16:33:16.084Z,86.13
2022-12-15T16:35:48.227Z,86.23
2022-12-15T16:38:19.640Z,86.25
2022-12-15T16:40:47.972Z,86.19
2022-12-15T16:43:18.645Z,86.18
2022-12-15T16:45:50.195Z,86.37
2022-12-15T16:48:19.190Z,86.65
2022-12-15T16:50:52.181Z,86.63
2022-12-15T16:53:27.380Z,86.78
2022-12-15T16:55:57.633Z,87.08
2022-12-15T16:58:28.341Z,87.24
2022-12-15T17:00:56.938Z,87.15
2022-12-15T17:03:27.725Z,87.10
2022-12-15T17:06:00.926Z,87.48
2022-12-15T17:08:34.709Z,87.56
2022-12-15T17:11:03.353Z,87.70
2022-12-15T17:13:41.890Z,87.78
2022-12-15T17:16:14.949Z,87.52
2022-12-15T17:18:44.542Z,87.46
2022-12-15T17:21:17.875Z,87.30
2022-12-15T17:23:49.080Z,87.33
2022-12-15T17:26:29.259Z,87.32
2022-12-15T17:29:01.711Z,87.34
2022-12-15T17:31:35.143Z,87.44
2022-12-15T17:34:23.858Z,87.67
2022-12-15T17:36:53.935Z,87.80
2022-12-15T17:39:23.740Z,87.96
2022-12-15T17:42:07.383Z,87.93
2022-12-15T17:44:38.276Z,87.90
2022-12-15T17:47:09.555Z,87.86
2022-12-15T17:49:39.115Z,87.87
2022-12-15T17:52:28.555Z,87.22
2022-12-15T17:54:57.922Z,87.11
2022-12-15T17:57:26.425Z,87.15
2022-12-15T17:59:55.144Z,87.18
2022-12-15T18:02:23.627Z,87.20
2022-12-15T18:04:52.039Z,87.07
2022-12-15T18:07:23.944Z,86.95
2022-12-15T18:09:53.456Z,86.82
2022-12-15T18:12:23.698Z,86.58
2022-12-15T18:14:52.397Z,86.67
2022-12-15T18:17:20.785Z,87.00
2022-12-15T18:19:49.537Z,87.01
2022-12-15T18:22:23.403Z,86.86
2022-12-15T18:24:53.841Z,86.95
2022-12-15T18:27:23.832Z,86.83
2022-12-15T18:29:52.639Z,86.54
2022-12-15T18:32:23.513Z,86.21
2022-12-15T18:34:52.461Z,86.20
2022-12-15T18:37:24.756Z,86.44
2022-12-15T18:39:53.678Z,86.67
2022-12-15T18:42:23.186Z,86.22
2022-12-15T18:44:53.620Z,86.22
2022-12-15T18:47:24.952Z,86.26
2022-12-15T18:49:53.390Z,86.40
2022-12-15T18:52:27.614Z,86.54
2022-12-15T18:54:57.299Z,86.50
2022-12-15T18:57:29.279Z,86.39
2022-12-15T18:59:59.001Z,86.24
2022-12-15T19:02:27.421Z,86.16
2022-12-15T19:04:55.814Z,85.96
2022-12-15T19:07:25.560Z,85.76
2022-12-15T19:09:54.512Z,85.51
2022-12-15T19:12:22.951Z,85.43
2022-12-15T19:14:55.136Z,85.36
2022-12-15T19:17:42.569Z,85.32
2022-12-15T19:20:34.930Z,85.31
2022-12-15T19:23:05.403Z,85.29
2022-12-15T19:25:34.719Z,85.22
2022-12-15T19:28:03.061Z,85.19
2022-12-15T19:30:40.164Z,85.13
2022-12-15T19:33:10.847Z,85.01
2022-12-15T19:35:40.857Z,84.93
2022-12-15T19:38:19.264Z,84.89
2022-12-15T19:40:48.615Z,84.96
2022-12-15T19:43:17.929Z,85.15
2022-12-15T19:45:47.294Z,85.25
2022-12-15T19:48:20.067Z,85.41
2022-12-15T19:50:52.153Z,85.60
2022-12-15T19:53:28.518Z,85.74
2022-12-15T19:55:59.449Z,85.84
2022-12-15T19:58:30.217Z,85.93
2022-12-15T20:01:01.456Z,86.06
2022-12-15T20:03:31.647Z,86.03
2022-12-15T20:06:02.439Z,86.00
2022-12-15T20:08:36.384Z,85.89
2022-12-15T20:11:06.552Z,85.88
2022-12-15T20:13:35.972Z,85.88
2022-12-15T20:16:04.567Z,85.92
2022-12-15T20:18:34.724Z,86.00
2022-12-15T20:21:03.343Z,86.08
2022-12-15T20:23:35.770Z,86.25
2022-12-15T20:26:04.442Z,86.16
2022-12-15T20:28:33.856Z,86.08
2022-12-15T20:31:02.336Z,86.06
2022-12-15T20:33:31.257Z,86.12
2022-12-15T20:36:00.380Z,86.22
2022-12-15T20:38:31.540Z,85.99
2022-12-15T20:41:02.851Z,85.72
2022-12-15T20:43:34.754Z,85.61
2022-12-15T20:46:07.914Z,85.61
2022-12-15T20:48:37.774Z,85.68
2022-12-15T20:51:10.069Z,85.68
2022-12-15T20:53:38.901Z,85.58
2022-12-15T20:56:11.191Z,85.84
2022-12-15T20:58:39.738Z,85.48
2022-12-15T21:01:19.337Z,85.59
2022-12-15T21:03:48.971Z,85.49
2022-12-15T21:06:17.972Z,85.89
2022-12-15T21:08:46.528Z,85.87
2022-12-15T21:11:19.512Z,85.86
2022-12-15T21:13:49.955Z,85.80
2022-12-15T21:16:20.602Z,85.91
2022-12-15T21:19:18.585Z,85.96
2022-12-15T21:21:39.413Z,85.84
2022-12-15T21:24:16.330Z,85.80
2022-12-15T21:26:46.546Z,85.67
2022-12-15T21:29:16.393Z,85.79
2022-12-15T21:31:44.790Z,85.90
2022-12-15T21:34:13.545Z,86.00
2022-12-15T21:36:43.960Z,86.09
2022-12-15T21:39:16.627Z,86.20
2022-12-15T21:41:46.235Z,86.35
2022-12-15T21:44:15.076Z,86.44
2022-12-15T21:46:43.589Z,86.41
2022-12-15T21:49:14.383Z,86.56
2022-12-15T21:51:44.900Z,86.64
2022-12-15T21:54:18.355Z,86.81
2022-12-15T21:56:48.954Z,86.74
2022-12-15T21:59:18.602Z,86.84
2022-12-15T22:01:47.528Z,86.90
2022-12-15T22:04:19.567Z,86.88
2022-12-15T22:09:36.992Z,86.87
2022-12-15T22:12:07.849Z,86.87
2022-12-15T22:14:36.447Z,87.06
2022-12-15T22:17:16.939Z,87.19
2022-12-15T22:19:45.579Z,87.04
2022-12-15T22:22:13.922Z,87.06
2022-12-15T22:24:42.149Z,86.86
2022-12-15T22:27:20.199Z,87.18
2022-12-15T22:29:49.263Z,87.36
2022-12-15T22:32:18.088Z,87.57
2022-12-15T22:34:46.329Z,87.73
2022-12-15T22:37:14.647Z,87.59
2022-12-15T22:39:42.852Z,87.54
2022-12-15T22:42:16.118Z,87.41
2022-12-15T22:44:45.272Z,86.52
2022-12-15T22:47:13.594Z,85.96
2022-12-15T22:49:42.826Z,86.43
2022-12-15T22:52:18.132Z,86.70
2022-12-15T22:54:46.536Z,86.83
2022-12-15T22:57:22.031Z,86.99
2022-12-15T22:59:54.623Z,87.15
2022-12-15T23:02:22.993Z,87.06
2022-12-15T23:04:51.305Z,87.14
2022-12-15T23:07:20.119Z,87.63
2022-12-15T23:09:48.343Z,87.96
2022-12-15T23:12:16.958Z,88.01
2022-12-15T23:15:02.763Z,88.27
2022-12-15T23:17:31.267Z,88.20
2022-12-15T23:19:59.488Z,87.90
2022-12-15T23:22:27.709Z,88.16
2022-12-15T23:24:56.147Z,88.99
2022-12-15T23:27:26.349Z,89.82
2022-12-15T23:29:54.586Z,89.80
2022-12-15T23:32:23.177Z,90.18
2022-12-15T23:34:51.499Z,90.08
2022-12-15T23:37:19.845Z,89.60
2022-12-15T23:39:48.060Z,89.34
2022-12-15T23:42:16.272Z,89.20
2022-12-15T23:44:45.844Z,88.71
2022-12-15T23:47:14.108Z,88.46
2022-12-15T23:49:42.406Z,88.46
2022-12-15T23:52:10.788Z,88.39
2022-12-15T23:54:38.965Z,88.51
2022-12-15T23:57:07.240Z,88.84
2022-12-15T23:59:36.430Z,89.26
